Time,TemperatureF,DewpointF,PressureIn,WindDirection,WindDirectionDegrees,WindSpeedMPH,WindSpeedGustMPH,Humidity,HourlyPrecipIn,Conditions,Clouds,dailyrainin,SoftwareType,DateUTC
2013-03-06 00:11:00,25.3,25.1,29.89,NW,315,4.7,-999.0,99,-99.99,,,0.00,Acu-Link.com,2013-03-06 06:11:00,
2013-03-06 00:27:00,26.2,26.0,29.90,NW,315,5.3,-999.0,99,-99.99,,,0.00,Acu-Link.com,2013-03-06 06:27:00,
2013-03-06 00:42:00,25.9,25.7,29.90,WNW,292,5.3,-999.0,99,-99.99,,,0.00,Acu-Link.com,2013-03-06 06:42:00,
2013-03-06 00:57:00,25.9,25.7,29.92,NNW,337,4.7,-999.0,99,-99.99,,,0.00,Acu-Link.com,2013-03-06 06:57:00,
2013-03-06 01:12:00,25.9,25.7,29.93,NNW,337,10.9,-999.0,99,-99.99,,,0.00,Acu-Link.com,2013-03-06 07:12:00,
2013-03-06 01:28:00,25.5,25.3,29.93,NNW,337,6.8,-999.0,99,-99.99,,,0.00,Acu-Link.com,2013-03-06 07:28:00,
2013-03-06 01:43:00,25.5,25.3,29.93,NNE,22,9.9,-999.0,99,-99.99,,,0.00,Acu-Link.com,2013-03-06 07:43:00,
2013-03-06 01:58:00,25.3,25.1,29.93,NW,315,7.3,-999.0,99,-99.99,,,0.00,Acu-Link.com,2013-03-06 07:58:00,
2013-03-06 02:13:00,25.2,25.0,29.94,NNW,337,6.3,-999.0,99,-99.99,,,0.00,Acu-Link.com,2013-03-06 08:13:00,
2013-03-06 02:28:00,25.2,25.0,29.95,WNW,292,5.3,-999.0,99,-99.99,,,0.00,Acu-Link.com,2013-03-06 08:28:00,
2013-03-06 02:44:00,25.0,24.8,29.95,NNW,337,4.7,-999.0,99,-99.99,,,0.00,Acu-Link.com,2013-03-06 08:44:00,
2013-03-06 02:59:00,25.0,24.8,29.96,NW,315,5.8,-999.0,99,-99.99,,,0.00,Acu-Link.com,2013-03-06 08:59:00,
2013-03-06 03:23:00,25.0,24.8,29.96,North,0,6.3,-999.0,99,-99.99,,,0.00,Acu-Link.com,2013-03-06 09:23:00,
2013-03-06 03:38:00,25.0,24.8,29.97,NNE,22,6.8,-999.0,99,-99.99,,,0.00,Acu-Link.com,2013-03-06 09:38:00,
2013-03-06 03:53:00,25.0,24.8,29.97,WNW,292,4.2,-999.0,99,-99.99,,,0.00,Acu-Link.com,2013-03-06 09:53:00,
2013-03-06 04:09:00,25.0,24.8,29.98,NNW,337,6.3,-999.0,99,-99.99,,,0.00,Acu-Link.com,2013-03-06 10:09:00,
2013-03-06 04:24:00,25.2,25.0,29.97,NNE,22,6.8,-999.0,99,-99.99,,,0.00,Acu-Link.com,2013-03-06 10:24:00,
2013-03-06 04:39:00,25.2,25.0,29.98,NNW,337,8.3,-999.0,99,-99.99,,,0.00,Acu-Link.com,2013-03-06 10:39:00,
2013-03-06 04:54:00,25.3,25.1,29.99,NNW,337,3.7,-999.0,99,-99.99,,,0.00,Acu-Link.com,2013-03-06 10:54:00,
2013-03-06 05:10:00,25.5,25.3,29.99,West,270,7.8,-999.0,99,-99.99,,,0.00,Acu-Link.com,2013-03-06 11:10:00,
2013-03-06 05:25:00,25.5,25.3,29.99,NNW,337,3.7,-999.0,99,-99.99,,,0.00,Acu-Link.com,2013-03-06 11:25:00,
2013-03-06 05:40:00,25.7,25.5,29.99,North,0,4.7,-999.0,99,-99.99,,,0.00,Acu-Link.com,2013-03-06 11:40:00,
2013-03-06 05:56:00,25.7,25.5,29.99,NNW,337,4.7,-999.0,99,-99.99,,,0.00,Acu-Link.com,2013-03-06 11:56:00,
2013-03-06 06:11:00,25.7,25.5,29.99,North,0,3.7,-999.0,99,-99.99,,,0.00,Acu-Link.com,2013-03-06 12:11:00,
2013-03-06 06:26:00,25.5,25.3,30.00,NW,315,3.7,-999.0,99,-99.99,,,0.00,Acu-Link.com,2013-03-06 12:26:00,
2013-03-06 06:41:00,25.5,25.3,30.01,WNW,292,2.2,-999.0,99,-99.99,,,0.00,Acu-Link.com,2013-03-06 12:41:00,
2013-03-06 06:56:00,25.9,25.7,30.02,NW,315,5.8,-999.0,99,-99.99,,,0.00,Acu-Link.com,2013-03-06 12:56:00,
2013-03-06 07:12:00,26.1,25.9,30.04,WNW,292,5.8,-999.0,99,-99.99,,,0.00,Acu-Link.com,2013-03-06 13:12:00,
2013-03-06 07:27:00,26.2,26.0,30.04,West,270,5.8,-999.0,99,-99.99,,,0.00,Acu-Link.com,2013-03-06 13:27:00,
2013-03-06 07:42:00,26.6,26.4,30.04,WNW,292,7.8,-999.0,99,-99.99,,,0.00,Acu-Link.com,2013-03-06 13:42:00,
2013-03-06 07:57:00,27.0,26.8,30.05,WNW,292,4.2,-999.0,99,-99.99,,,0.00,Acu-Link.com,2013-03-06 13:57:00,
2013-03-06 08:13:00,27.7,27.5,30.06,NW,315,3.7,-999.0,99,-99.99,,,0.00,Acu-Link.com,2013-03-06 14:13:00,
2013-03-06 08:28:00,28.8,28.6,30.06,WNW,292,7.3,-999.0,99,-99.99,,,0.00,Acu-Link.com,2013-03-06 14:28:00,
2013-03-06 08:44:00,29.3,29.1,30.07,WNW,292,5.8,-999.0,99,-99.99,,,0.00,Acu-Link.com,2013-03-06 14:44:00,
2013-03-06 08:59:00,30.0,29.8,30.07,North,0,6.3,-999.0,99,-99.99,,,0.00,Acu-Link.com,2013-03-06 14:59:00,
2013-03-06 09:14:00,30.6,30.4,30.07,WNW,292,7.3,-999.0,99,-99.99,,,0.00,Acu-Link.com,2013-03-06 15:14:00,
2013-03-06 09:29:00,31.3,31.1,30.08,WNW,292,1.7,-999.0,99,-99.99,,,0.00,Acu-Link.com,2013-03-06 15:29:00,
2013-03-06 09:44:00,32.7,32.5,30.08,WNW,292,6.3,-999.0,99,-99.99,,,0.00,Acu-Link.com,2013-03-06 15:44:00,
2013-03-06 10:00:00,32.4,32.2,30.08,NNW,337,5.3,-999.0,99,-99.99,,,0.00,Acu-Link.com,2013-03-06 16:00:00,
2013-03-06 10:15:00,32.7,32.5,30.08,NW,315,3.2,-999.0,99,-99.99,,,0.00,Acu-Link.com,2013-03-06 16:15:00,
2013-03-06 10:30:00,32.0,31.8,30.08,West,270,6.8,-999.0,99,-99.99,,,0.00,Acu-Link.com,2013-03-06 16:30:00,
2013-03-06 10:45:00,33.8,33.5,30.08,North,0,7.8,-999.0,99,-99.99,,,0.00,Acu-Link.com,2013-03-06 16:45:00,
2013-03-06 11:00:00,36.3,36.0,30.08,West,270,5.8,-999.0,99,-99.99,,,0.00,Acu-Link.com,2013-03-06 17:00:00,
2013-03-06 11:16:00,36.3,36.0,30.08,WNW,292,5.8,-999.0,99,-99.99,,,0.00,Acu-Link.com,2013-03-06 17:16:00,
2013-03-06 11:31:00,34.5,34.2,30.09,West,270,7.3,-999.0,99,-99.99,,,0.00,Acu-Link.com,2013-03-06 17:31:00,
2013-03-06 11:46:00,35.6,35.3,30.09,NW,315,7.3,-999.0,99,-99.99,,,0.00,Acu-Link.com,2013-03-06 17:46:00,
2013-03-06 12:01:00,34.0,33.7,30.09,West,270,7.3,-999.0,99,-99.99,,,0.00,Acu-Link.com,2013-03-06 18:01:00,
2013-03-06 12:17:00,35.4,35.1,30.09,NNE,22,3.7,-999.0,99,-99.99,,,0.01,Acu-Link.com,2013-03-06 18:17:00,
2013-03-06 12:32:00,35.6,35.3,30.08,WNW,292,4.2,-999.0,99,-99.99,,,0.03,Acu-Link.com,2013-03-06 18:32:00,
2013-03-06 12:47:00,37.0,36.7,30.08,WNW,292,2.2,-999.0,99,-99.99,,,0.06,Acu-Link.com,2013-03-06 18:47:00,
2013-03-06 13:02:00,33.3,33.0,30.07,West,270,9.4,-999.0,99,-99.99,,,0.06,Acu-Link.com,2013-03-06 19:02:00,
2013-03-06 13:17:00,34.5,34.2,30.08,West,270,10.4,-999.0,99,-99.99,,,0.07,Acu-Link.com,2013-03-06 19:17:00,
2013-03-06 13:33:00,34.2,33.9,30.08,WNW,292,3.7,-999.0,99,-99.99,,,0.07,Acu-Link.com,2013-03-06 19:33:00,
2013-03-06 13:48:00,36.1,35.8,30.08,WNW,292,4.7,-999.0,99,-99.99,,,0.08,Acu-Link.com,2013-03-06 19:48:00,
2013-03-06 14:03:00,33.4,33.1,30.08,West,270,6.3,-999.0,99,-99.99,,,0.08,Acu-Link.com,2013-03-06 20:03:00,
2013-03-06 14:18:00,35.1,34.8,30.08,West,270,3.2,-999.0,99,-99.99,,,0.08,Acu-Link.com,2013-03-06 20:18:00,
2013-03-06 14:33:00,34.2,33.9,30.08,West,270,7.8,-999.0,99,-99.99,,,0.08,Acu-Link.com,2013-03-06 20:33:00,
2013-03-06 14:49:00,34.2,33.4,30.07,WNW,292,6.3,-999.0,97,-99.99,,,0.08,Acu-Link.com,2013-03-06 20:49:00,
2013-03-06 15:04:00,33.6,33.3,30.07,WNW,292,5.3,-999.0,99,-99.99,,,0.08,Acu-Link.com,2013-03-06 21:04:00,
2013-03-06 15:19:00,33.6,33.3,30.08,WNW,292,6.8,-999.0,99,-99.99,,,0.08,Acu-Link.com,2013-03-06 21:19:00,
2013-03-06 15:34:00,33.4,33.1,30.08,WNW,292,5.3,-999.0,99,-99.99,,,0.08,Acu-Link.com,2013-03-06 21:34:00,
2013-03-06 15:50:00,33.6,33.3,30.09,WNW,292,7.3,-999.0,99,-99.99,,,0.08,Acu-Link.com,2013-03-06 21:50:00,
2013-03-06 16:05:00,33.1,32.8,30.09,WNW,292,3.2,-999.0,99,-99.99,,,0.08,Acu-Link.com,2013-03-06 22:05:00,
2013-03-06 16:20:00,32.4,32.2,30.09,NW,315,4.7,-999.0,99,-99.99,,,0.08,Acu-Link.com,2013-03-06 22:20:00,
2013-03-06 16:35:00,31.8,31.6,30.09,West,270,4.7,-999.0,99,-99.99,,,0.08,Acu-Link.com,2013-03-06 22:35:00,
2013-03-06 16:52:00,31.3,31.1,30.10,WNW,292,6.3,-999.0,99,-99.99,,,0.08,Acu-Link.com,2013-03-06 22:52:00,
2013-03-06 17:07:00,30.9,30.7,30.10,NNW,337,6.3,-999.0,99,-99.99,,,0.08,Acu-Link.com,2013-03-06 23:07:00,
2013-03-06 17:22:00,30.7,30.5,30.11,West,270,5.3,-999.0,99,-99.99,,,0.08,Acu-Link.com,2013-03-06 23:22:00,
2013-03-06 17:38:00,30.6,30.4,30.10,West,270,4.2,-999.0,99,-99.99,,,0.08,Acu-Link.com,2013-03-06 23:38:00,
2013-03-06 17:53:00,30.2,30.0,30.10,WNW,292,2.7,-999.0,99,-99.99,,,0.08,Acu-Link.com,2013-03-06 23:53:00,
2013-03-06 18:08:00,29.8,29.6,30.11,NNW,337,1.7,-999.0,99,-99.99,,,0.08,Acu-Link.com,2013-03-07 00:08:00,
2013-03-06 18:23:00,29.7,29.5,30.11,WNW,292,2.7,-999.0,99,-99.99,,,0.08,Acu-Link.com,2013-03-07 00:23:00,
2013-03-06 18:38:00,29.7,29.5,30.12,WNW,292,3.2,-999.0,99,-99.99,,,0.08,Acu-Link.com,2013-03-07 00:38:00,
2013-03-06 18:54:00,29.7,29.5,30.12,West,270,2.7,-999.0,99,-99.99,,,0.08,Acu-Link.com,2013-03-07 00:54:00,
2013-03-06 19:39:00,29.8,29.6,30.12,West,270,4.2,-999.0,99,-99.99,,,0.08,Acu-Link.com,2013-03-07 01:39:00,
2013-03-06 19:54:00,29.7,29.5,30.12,West,270,1.1,-999.0,99,-99.99,,,0.08,Acu-Link.com,2013-03-07 01:54:00,
2013-03-06 20:10:00,29.5,29.3,30.12,WNW,292,2.2,-999.0,99,-99.99,,,0.08,Acu-Link.com,2013-03-07 02:10:00,
2013-03-06 20:25:00,29.5,29.3,30.12,West,270,4.2,-999.0,99,-99.99,,,0.08,Acu-Link.com,2013-03-07 02:25:00,
2013-03-06 20:40:00,29.5,29.3,30.13,WNW,292,4.2,-999.0,99,-99.99,,,0.08,Acu-Link.com,2013-03-07 02:40:00,
2013-03-06 20:55:00,29.5,29.3,30.13,West,270,5.3,-999.0,99,-99.99,,,0.08,Acu-Link.com,2013-03-07 02:55:00,
2013-03-06 21:10:00,29.5,29.3,30.13,WNW,292,3.2,-999.0,99,-99.99,,,0.08,Acu-Link.com,2013-03-07 03:10:00,
2013-03-06 21:26:00,29.3,29.1,30.13,WSW,247,3.2,-999.0,99,-99.99,,,0.08,Acu-Link.com,2013-03-07 03:26:00,
2013-03-06 21:41:00,29.1,28.9,30.13,NW,315,3.2,-999.0,99,-99.99,,,0.08,Acu-Link.com,2013-03-07 03:41:00,
2013-03-06 21:56:00,29.1,28.9,30.13,West,270,1.7,-999.0,99,-99.99,,,0.08,Acu-Link.com,2013-03-07 03:56:00,
2013-03-06 22:11:00,28.9,28.7,30.13,WNW,292,4.7,-999.0,99,-99.99,,,0.08,Acu-Link.com,2013-03-07 04:11:00,
2013-03-06 22:26:00,28.8,28.6,30.13,WNW,292,2.2,-999.0,99,-99.99,,,0.08,Acu-Link.com,2013-03-07 04:26:00,
2013-03-06 22:42:00,27.9,27.7,30.13,West,270,2.2,-999.0,99,-99.99,,,0.08,Acu-Link.com,2013-03-07 04:42:00,
2013-03-06 22:57:00,28.8,28.6,30.14,WNW,292,2.7,-999.0,99,-99.99,,,0.08,Acu-Link.com,2013-03-07 04:57:00,
2013-03-06 23:12:00,28.6,28.4,30.14,West,270,3.2,-999.0,99,-99.99,,,0.08,Acu-Link.com,2013-03-07 05:12:00,
2013-03-06 23:27:00,28.4,28.2,30.13,West,270,2.7,-999.0,99,-99.99,,,0.08,Acu-Link.com,2013-03-07 05:27:00,
2013-03-06 23:43:00,28.2,28.0,30.13,West,270,1.1,-999.0,99,-99.99,,,0.08,Acu-Link.com,2013-03-07 05:43:00,
2013-03-06 23:58:00,28.0,27.8,30.13,West,270,1.7,-999.0,99,-99.99,,,0.08,Acu-Link.com,2013-03-07 05:58:00,